Time;durP1;ratioP1;P1;durP2;ratioP2;P2;SDS_P1;SDS_P2;PMS_P1;PMS_P2;Temp;Humidity;BMP_temperature;BMP_pressure;BME280_temperature;BME280_humidity;BME280_pressure;Samples;Min_cycle;Max_cycle;Signal;HPM_P1;HPM_P2
2023/03/30 00:01:17;;;;;;;6.50;3.90;;;;;;;5.73;46.76;102050.88;109764;1276;1003063;-48
2023/03/30 00:03:48;;;;;;;7.30;5.20;;;;;;;5.71;46.85;102051.70;110515;1272;22131;-48
2023/03/30 00:06:21;;;;;;;4.90;4.10;;;;;;;5.69;46.91;102056.83;110510;1273;22523;-48
2023/03/30 00:08:52;;;;;;;6.10;3.90;;;;;;;5.68;46.94;102051.64;110218;1276;22130;-48
2023/03/30 00:11:22;;;;;;;6.60;4.60;;;;;;;5.68;47.19;102056.12;110458;1276;22272;-48
2023/03/30 00:13:50;;;;;;;4.40;3.30;;;;;;;5.69;47.29;102053.40;109703;1272;1003083;-48
2023/03/30 00:16:19;;;;;;;6.80;4.30;;;;;;;5.73;47.30;102052.43;110536;1270;22188;-47
2023/03/30 00:18:47;;;;;;;6.40;4.40;;;;;;;5.77;47.35;102052.33;110523;1270;22268;-47
2023/03/30 00:21:16;;;;;;;6.80;4.30;;;;;;;5.81;47.29;102049.83;110504;1272;22376;-48
2023/03/30 00:23:46;;;;;;;4.50;3.90;;;;;;;5.84;47.08;102052.48;110505;1276;22207;-48
2023/03/30 00:26:15;;;;;;;5.30;4.00;;;;;;;5.84;46.88;102054.36;110499;1269;22215;-48
2023/03/30 00:28:43;;;;;;;5.10;3.50;;;;;;;5.83;46.88;102054.71;109427;1276;1002865;-48
2023/03/30 00:31:13;;;;;;;5.00;3.40;;;;;;;5.83;46.86;102056.75;110243;1269;23096;-48
2023/03/30 00:33:42;;;;;;;5.50;4.10;;;;;;;5.80;46.90;102057.73;110524;1272;22114;-48
2023/03/30 00:36:16;;;;;;;4.10;3.40;;;;;;;5.78;46.93;102056.33;110485;1275;22113;-48
2023/03/30 00:38:47;;;;;;;5.90;3.80;;;;;;;5.76;46.90;102059.54;109733;1271;1002744;-47
2023/03/30 00:41:16;;;;;;;5.40;3.60;;;;;;;5.73;46.95;102054.50;110270;1277;22138;-48
2023/03/30 00:43:58;;;;;;;4.50;3.40;;;;;;;5.70;46.92;102058.57;110151;1269;22985;-48
2023/03/30 00:46:29;;;;;;;5.10;3.10;;;;;;;5.67;46.79;102061.10;109648;1269;1002281;-47
2023/03/30 00:49:07;;;;;;;4.00;3.10;;;;;;;5.65;46.79;102057.78;110216;1276;22296;-48
2023/03/30 00:51:37;;;;;;;4.30;3.00;;;;;;;5.62;46.91;102056.88;110483;1276;22362;-47
2023/03/30 00:54:08;;;;;;;;;;;;;;;5.61;46.87;102058.91;110508;1271;22429;-48
2023/03/30 00:56:38;;;;;;;3.90;3.20;;;;;;;5.60;46.93;102058.55;110067;1273;23032;-48
2023/03/30 00:59:07;;;;;;;4.60;3.20;;;;;;;5.58;46.82;102056.97;109634;1270;1002926;-48
2023/03/30 01:01:39;;;;;;;3.70;2.90;;;;;;;5.57;46.82;102059.71;110211;1274;22150;-48
2023/03/30 01:04:08;;;;;;;5.30;3.20;;;;;;;5.57;46.85;102063.14;109440;1276;1002685;-48
2023/03/30 01:06:38;;;;;;;5.80;3.60;;;;;;;5.58;46.78;102065.73;110510;1273;22452;-47
2023/03/30 01:09:07;;;;;;;5.10;3.70;;;;;;;5.56;46.77;102066.74;109519;1271;1003099;-48
2023/03/30 01:11:39;;;;;;;5.40;3.80;;;;;;;5.57;46.80;102066.92;110427;1269;23144;-48
2023/03/30 01:14:08;;;;;;;5.40;3.70;;;;;;;5.56;46.85;102070.52;109750;1276;1002680;-48
2023/03/30 01:17:00;;;;;;;4.10;2.80;;;;;;;5.56;46.65;102071.02;109596;1276;1002999;-48
2023/03/30 01:19:32;;;;;;;6.30;3.10;;;;;;;5.55;46.60;102070.49;110390;1276;22297;-47
2023/03/30 01:22:13;;;;;;;3.30;2.70;;;;;;;5.56;46.78;102075.34;109731;1276;1002197;-48
2023/03/30 01:25:02;;;;;;;5.50;2.90;;;;;;;5.60;46.79;102076.27;110402;1276;22480;-48
2023/03/30 01:27:45;;;;;;;4.90;3.10;;;;;;;5.65;46.68;102077.77;110523;1272;22283;-48
2023/03/30 01:30:19;;;;;;;3.40;2.60;;;;;;;5.71;46.62;102080.10;109678;1269;1002210;-48
2023/03/30 01:33:35;;;;;;;4.30;3.00;;;;;;;5.75;46.45;102078.64;109702;1276;1002343;-48
2023/03/30 01:36:19;;;;;;;4.20;3.10;;;;;;;5.79;46.47;102079.73;110342;1274;22861;-48
2023/03/30 01:39:08;;;;;;;4.40;3.20;;;;;;;5.79;46.22;102081.63;110231;1276;22156;-48
2023/03/30 01:41:56;;;;;;;5.70;3.00;;;;;;;5.77;46.27;102083.32;110381;1268;22609;-48
2023/03/30 01:44:33;;;;;;;9.30;3.70;;;;;;;5.76;46.46;102080.38;110491;1270;22116;-48
2023/03/30 01:47:13;;;;;;;4.90;3.00;;;;;;;5.76;46.67;102088.31;109707;1269;1002421;-48
2023/03/30 01:50:00;;;;;;;3.40;2.90;;;;;;;5.76;46.68;102090.37;110303;1274;22429;-48
2023/03/30 01:53:00;;;;;;;5.50;3.10;;;;;;;5.77;46.81;102092.09;110340;1276;22905;-48
2023/03/30 01:55:37;;;;;;;4.50;3.10;;;;;;;5.76;46.83;102091.91;109969;1280;22161;-48
2023/03/30 01:58:09;;;;;;;5.50;3.50;;;;;;;5.75;46.83;102090.52;109874;1281;22247;-48
2023/03/30 02:00:40;;;;;;;4.10;3.30;;;;;;;5.75;46.86;102098.25;109338;1273;1002089;-48
2023/03/30 02:03:12;;;;;;;;;;;;;;;5.75;46.99;102096.36;110146;1277;22440;-48
2023/03/30 02:05:41;;;;;;;3.90;3.10;;;;;;;5.74;46.92;102096.36;110003;1273;22394;-48
2023/03/30 02:08:19;;;;;;;3.40;2.60;;;;;;;5.71;46.86;102100.08;109245;1278;1003093;-48
2023/03/30 02:10:49;;;;;;;3.90;2.50;;;;;;;5.69;46.84;102097.27;109286;1277;1002609;-48
2023/03/30 02:13:18;;;;;;;3.60;2.70;;;;;;;5.66;46.92;102094.14;109997;1278;22203;-48
2023/03/30 02:16:02;;;;;;;3.10;2.60;;;;;;;5.65;46.83;102094.98;110037;1281;22459;-48
2023/03/30 02:18:31;;;;;;;3.50;2.60;;;;;;;5.65;46.94;102095.15;110109;1273;22134;-48
2023/03/30 02:21:00;;;;;;;3.00;2.70;;;;;;;5.66;47.13;102096.71;110008;1272;22437;-48
2023/03/30 02:23:33;;;;;;;4.40;3.10;;;;;;;5.66;47.16;102099.48;110133;1273;22922;-48
2023/03/30 02:26:03;;;;;;;4.90;2.80;;;;;;;5.68;47.14;102098.82;109930;1276;22396;-48
2023/03/30 02:28:34;;;;;;;5.50;3.20;;;;;;;5.70;47.19;102099.37;109838;1276;22197;-49
2023/03/30 02:31:02;;;;;;;4.30;2.80;;;;;;;5.75;47.32;102100.67;109949;1281;22178;-48
2023/03/30 02:33:34;;;;;;;4.70;3.10;;;;;;;5.82;47.22;102101.18;109957;1280;22382;-48
2023/03/30 02:36:12;;;;;;;;;;;;;;;5.87;47.23;102104.04;110031;1273;23178;-48
2023/03/30 02:38:44;;;;;;;3.30;2.80;;;;;;;5.89;47.12;102100.46;110011;1277;22150;-48
2023/03/30 02:41:19;;;;;;;4.50;3.40;;;;;;;5.92;46.87;102107.73;109280;1280;1002468;-48
2023/03/30 02:43:48;;;;;;;4.20;3.00;;;;;;;5.93;46.87;102109.83;109174;1280;1002472;-48
2023/03/30 02:46:35;;;;;;;4.20;2.70;;;;;;;5.89;47.12;102114.41;109979;1280;22149;-49
2023/03/30 02:49:42;;;;;;;2.50;2.20;;;;;;;5.87;47.13;102114.55;109223;1279;1002322;-49
2023/03/30 02:52:18;;;;;;;3.70;2.20;;;;;;;5.83;47.08;102117.73;109121;1280;1002272;-48
2023/03/30 02:54:53;;;;;;;3.40;2.60;;;;;;;5.80;47.05;102118.17;110003;1280;22181;-49
2023/03/30 02:58:02;;;;;;;4.60;2.80;;;;;;;5.76;47.04;102122.55;109492;1276;1002458;-48
2023/03/30 03:01:02;;;;;;;2.90;2.10;;;;;;;5.74;47.22;102125.27;109624;1269;1002191;-49
2023/03/30 03:03:45;;;;;;;6.30;2.50;;;;;;;5.74;47.25;102123.38;109532;1276;1002382;-48
2023/03/30 03:06:14;;;;;;;3.70;2.60;;;;;;;5.72;47.18;102122.83;110178;1273;22138;-49
2023/03/30 03:08:50;;;;;;;4.10;2.50;;;;;;;5.69;47.19;102124.51;110255;1276;22419;-48
2023/03/30 03:11:22;;;;;;;6.30;2.60;;;;;;;5.68;47.16;102126.18;110177;1277;22121;-48
2023/03/30 03:13:51;;;;;;;4.80;2.40;;;;;;;5.67;46.84;102123.07;110449;1269;22428;-48
2023/03/30 03:16:19;;;;;;;2.90;2.10;;;;;;;5.65;46.53;102128.38;110061;1276;22299;-48
2023/03/30 03:19:08;;;;;;;3.90;2.40;;;;;;;5.63;46.47;102132.80;109692;1268;1003013;-48
2023/03/30 03:21:41;;;;;;;4.50;3.10;;;;;;;5.63;46.63;102129.19;110369;1269;22440;-48
2023/03/30 03:24:12;;;;;;;5.90;2.90;;;;;;;5.60;46.78;102127.59;110388;1273;22207;-48
2023/03/30 03:26:59;;;;;;;3.70;2.70;;;;;;;5.60;47.03;102129.98;109711;1269;1003258;-48
2023/03/30 03:29:29;;;;;;;4.00;3.10;;;;;;;5.59;47.02;102129.80;109420;1273;1002284;-48
2023/03/30 03:31:57;;;;;;;3.70;2.40;;;;;;;5.60;47.05;102128.09;110474;1270;22252;-48
2023/03/30 03:34:31;;;;;;;3.50;2.40;;;;;;;5.60;46.91;102127.75;110416;1269;23140;-46
2023/03/30 03:37:04;;;;;;;5.30;2.70;;;;;;;5.58;46.83;102131.48;110394;1269;23284;-48
2023/03/30 03:39:36;;;;;;;3.10;2.30;;;;;;;5.57;46.92;102127.51;110370;1276;22371;-48
2023/03/30 03:42:07;;;;;;;3.30;2.30;;;;;;;5.58;47.31;102128.23;109636;1276;1002738;-48
2023/03/30 03:44:41;;;;;;;3.50;3.00;;;;;;;5.61;47.43;102130.35;109592;1270;1003055;-48
2023/03/30 03:47:12;;;;;;;3.20;2.60;;;;;;;5.64;47.45;102132.83;110424;1269;22267;-49
2023/03/30 03:49:43;;;;;;;4.00;2.50;;;;;;;5.65;47.19;102135.27;109582;1276;1002201;-48
2023/03/30 03:52:12;;;;;;;4.00;2.80;;;;;;;5.65;46.97;102132.66;110413;1269;22433;-48
2023/03/30 03:54:41;;;;;;;3.10;2.70;;;;;;;5.62;47.21;102130.89;110132;1273;22297;-48
2023/03/30 03:57:13;;;;;;;4.10;2.90;;;;;;;5.63;47.03;102134.70;110383;1274;22127;-48
2023/03/30 03:59:42;;;;;;;3.60;2.50;;;;;;;5.63;46.99;102133.48;110163;1276;22139;-48
2023/03/30 04:02:13;;;;;;;4.70;3.20;;;;;;;5.65;47.06;102140.60;110347;1276;22352;-48
2023/03/30 04:04:41;;;;;;;4.60;3.00;;;;;;;5.69;47.20;102142.90;110452;1276;22161;-48
2023/03/30 04:07:10;;;;;;;5.30;3.80;;;;;;;5.71;47.19;102145.02;110240;1276;22812;-48
2023/03/30 04:09:39;;;;;;;9.00;3.40;;;;;;;5.73;47.17;102145.22;109380;1272;1002590;-47
2023/03/30 04:12:41;;;;;;;;;;;;;;;5.74;47.30;102149.38;109626;1269;1002476;-47
2023/03/30 04:15:24;;;;;;;3.90;3.00;;;;;;;5.74;47.34;102151.96;109659;1276;1003032;-48
2023/03/30 04:18:15;;;;;;;4.50;2.90;;;;;;;5.73;47.39;102154.88;110161;1269;22299;-48
2023/03/30 04:21:06;;;;;;;4.70;2.70;;;;;;;5.72;47.33;102155.20;110198;1274;22148;-48
2023/03/30 04:24:04;;;;;;;5.20;3.50;;;;;;;5.70;47.40;102154.80;109193;1278;1002983;-48
2023/03/30 04:26:51;;;;;;;4.90;3.50;;;;;;;5.68;47.54;102156.15;110200;1272;22154;-48
2023/03/30 04:29:28;;;;;;;5.00;3.30;;;;;;;5.67;47.60;102154.05;110169;1278;22234;-48
2023/03/30 04:32:19;;;;;;;5.90;3.90;;;;;;;5.68;47.85;102158.73;109317;1271;1002959;-48
2023/03/30 04:35:13;;;;;;;4.40;3.30;;;;;;;5.70;47.78;102162.39;110088;1278;22227;-46
2023/03/30 04:38:09;;;;;;;9.70;3.80;;;;;;;5.73;47.55;102164.67;109400;1272;1002166;-47
2023/03/30 04:40:51;;;;;;;5.80;3.70;;;;;;;5.75;47.58;102161.63;109994;1278;22214;-46
2023/03/30 04:43:43;;;;;;;5.00;3.60;;;;;;;5.79;47.42;102163.80;110167;1273;22164;-48
2023/03/30 04:46:30;;;;;;;5.80;3.80;;;;;;;5.83;47.46;102162.31;110238;1271;22167;-47
2023/03/30 04:49:36;;;;;;;5.30;3.70;;;;;;;5.86;47.49;102163.08;110153;1273;22183;-47
2023/03/30 04:52:39;;;;;;;4.00;3.20;;;;;;;5.89;47.47;102164.02;109034;1276;1002250;-48
2023/03/30 04:55:29;;;;;;;5.70;3.70;;;;;;;5.89;47.38;102162.11;110149;1276;22121;-48
2023/03/30 04:58:24;;;;;;;5.10;3.50;;;;;;;5.88;47.30;102165.90;110397;1276;23155;-48
2023/03/30 05:01:16;;;;;;;11.60;3.90;;;;;;;5.83;47.03;102162.14;110470;1269;23196;-48
2023/03/30 05:04:02;;;;;;;6.60;4.30;;;;;;;5.80;47.08;102160.36;110436;1268;22976;-48
2023/03/30 05:06:50;;;;;;;5.60;4.10;;;;;;;5.81;47.09;102158.47;110461;1276;22115;-48
2023/03/30 05:09:36;;;;;;;5.30;3.90;;;;;;;5.82;47.24;102157.80;110101;1273;22861;-47
2023/03/30 05:12:20;;;;;;;4.60;3.60;;;;;;;5.84;47.28;102163.40;110400;1268;23081;-47
2023/03/30 05:15:11;;;;;;;5.10;3.60;;;;;;;5.87;47.20;102161.55;109366;1268;1002737;-48
2023/03/30 05:17:53;;;;;;;5.70;3.40;;;;;;;5.89;47.26;102166.43;109600;1276;1002889;-48
2023/03/30 05:20:43;;;;;;;4.00;3.10;;;;;;;5.90;47.33;102169.35;110343;1270;22130;-48
2023/03/30 05:23:43;;;;;;;4.60;3.30;;;;;;;5.89;47.54;102171.92;109373;1272;1002154;-48
2023/03/30 05:26:50;;;;;;;6.30;3.10;;;;;;;5.86;47.33;102175.65;109885;1276;22168;-48
2023/03/30 05:29:24;;;;;;;6.20;3.10;;;;;;;5.85;47.45;102178.55;109905;1283;22777;-48
2023/03/30 05:32:11;;;;;;;5.50;3.10;;;;;;;5.85;47.22;102180.30;110266;1276;23126;-47
2023/03/30 05:35:04;;;;;;;4.10;2.90;;;;;;;5.87;47.01;102175.52;109610;1270;1002916;-48
2023/03/30 05:37:53;;;;;;;4.40;3.20;;;;;;;5.89;46.63;102175.89;110418;1271;22453;-48
2023/03/30 05:40:52;;;;;;;6.10;2.80;;;;;;;5.93;46.38;102172.17;109973;1276;22427;-47
2023/03/30 05:43:50;;;;;;;5.70;2.90;;;;;;;5.95;46.14;102172.58;110079;1276;22317;-48
2023/03/30 05:46:30;;;;;;;4.50;3.00;;;;;;;5.95;46.36;102166.19;110142;1276;22591;-48
2023/03/30 05:49:19;;;;;;;5.10;2.60;;;;;;;5.96;46.33;102166.04;109446;1276;1002547;-48
2023/03/30 05:52:07;;;;;;;4.70;2.60;;;;;;;5.97;46.18;102167.96;109655;1276;1002905;-48
2023/03/30 05:54:58;;;;;;;3.30;2.40;;;;;;;6.00;46.62;102166.11;110410;1269;22419;-48
2023/03/30 05:57:37;;;;;;;3.40;2.50;;;;;;;6.12;46.59;102159.29;109617;1276;1002520;-48
2023/03/30 06:00:33;;;;;;;5.60;2.80;;;;;;;6.33;46.26;102159.69;110272;1276;22312;-47
2023/03/30 06:03:13;;;;;;;3.30;2.30;;;;;;;6.56;45.70;102157.67;110399;1270;22140;-48
2023/03/30 06:05:42;;;;;;;4.20;2.30;;;;;;;6.83;45.11;102156.73;110145;1260;23124;-48
2023/03/30 06:08:12;;;;;;;3.60;2.50;;;;;;;7.14;44.65;102166.19;110337;1270;22430;-48
2023/03/30 06:10:51;;;;;;;3.00;2.30;;;;;;;7.47;44.00;102163.87;110317;1277;22369;-48
2023/03/30 06:13:19;;;;;;;3.70;2.30;;;;;;;7.76;43.42;102161.67;110379;1268;22912;-48
2023/03/30 06:15:58;;;;;;;3.10;2.10;;;;;;;8.03;42.85;102160.61;109627;1276;1002889;-48
2023/03/30 06:18:30;;;;;;;3.10;2.50;;;;;;;8.27;42.02;102158.98;110357;1273;22905;-48
2023/03/30 06:21:07;;;;;;;4.20;2.30;;;;;;;8.44;41.85;102160.88;109621;1270;1002461;-48
2023/03/30 06:24:09;;;;;;;3.70;2.50;;;;;;;8.70;41.62;102164.55;109409;1276;1002590;-48
2023/03/30 06:26:39;;;;;;;5.00;2.20;;;;;;;8.90;40.93;102161.61;109599;1269;1002869;-48
2023/03/30 06:29:08;;;;;;;4.80;2.40;;;;;;;9.06;40.28;102165.88;110435;1276;23005;-48
2023/03/30 06:31:40;;;;;;;4.40;2.30;;;;;;;9.17;39.71;102164.91;110381;1269;22124;-48
2023/03/30 06:34:27;;;;;;;5.30;2.50;;;;;;;9.17;39.32;102170.80;110483;1268;22142;-48
2023/03/30 06:36:56;;;;;;;3.30;2.20;;;;;;;9.13;39.64;102164.20;109644;1269;1002586;-47
2023/03/30 06:39:25;;;;;;;4.30;2.60;;;;;;;9.16;39.23;102161.95;110391;1260;22999;-48
2023/03/30 06:41:53;;;;;;;4.00;2.50;;;;;;;9.18;38.93;102163.01;110366;1269;22309;-48
2023/03/30 06:44:36;;;;;;;3.90;2.50;;;;;;;9.17;38.71;102160.58;110336;1276;22749;-48
2023/03/30 06:47:10;;;;;;;2.50;2.00;;;;;;;9.21;38.67;102162.16;110377;1268;23040;-48
2023/03/30 06:49:39;;;;;;;3.40;2.40;;;;;;;9.24;38.88;102162.73;110420;1270;22181;-48
2023/03/30 06:52:26;;;;;;;6.30;3.10;;;;;;;9.30;38.60;102159.97;110410;1268;22330;-48
2023/03/30 06:54:55;;;;;;;3.40;2.50;;;;;;;9.34;38.56;102158.44;110219;1276;22352;-48
2023/03/30 06:57:24;;;;;;;4.20;2.20;;;;;;;9.38;38.72;102152.73;110178;1273;22980;-48
2023/03/30 06:59:53;;;;;;;5.50;2.50;;;;;;;9.50;39.05;102153.67;110430;1268;22287;-48
2023/03/30 07:02:21;;;;;;;3.20;2.00;;;;;;;9.70;38.48;102152.38;110442;1276;22114;-48
2023/03/30 07:05:17;;;;;;;3.40;2.20;;;;;;;9.86;37.51;102150.88;109495;1276;1002441;-48
2023/03/30 07:08:13;;;;;;;6.70;2.20;;;;;;;9.98;37.47;102158.36;110217;1276;22425;-48
2023/03/30 07:10:47;;;;;;;2.60;2.10;;;;;;;10.04;36.93;102159.42;110419;1276;22124;-48
2023/03/30 07:13:16;;;;;;;3.10;2.00;;;;;;;10.09;36.78;102154.77;110378;1270;22439;-48
2023/03/30 07:15:46;;;;;;;5.10;2.20;;;;;;;10.16;36.36;102156.19;110094;1277;23279;-48
2023/03/30 07:18:15;;;;;;;2.10;1.90;;;;;;;10.12;36.20;102161.73;110424;1268;22207;-48
2023/03/30 07:20:46;;;;;;;3.70;2.40;;;;;;;10.12;36.38;102159.65;110360;1276;22302;-48
2023/03/30 07:23:16;;;;;;;3.00;2.30;;;;;;;10.16;36.03;102156.89;109574;1268;1003228;-48
2023/03/30 07:25:45;;;;;;;2.80;1.80;;;;;;;10.19;35.93;102154.98;110386;1270;22810;-48
2023/03/30 07:28:22;;;;;;;2.00;1.70;;;;;;;10.21;35.48;102152.91;109688;1268;1002263;-48
2023/03/30 07:30:51;;;;;;;2.90;1.90;;;;;;;10.22;34.76;102149.80;110456;1270;22273;-48
2023/03/30 07:33:21;;;;;;;4.40;1.50;;;;;;;10.16;34.85;102151.16;110392;1276;22242;-48
2023/03/30 07:35:49;;;;;;;2.20;1.50;;;;;;;10.09;34.71;102150.42;110376;1269;22378;-48
2023/03/30 07:38:21;;;;;;;1.90;1.70;;;;;;;10.00;34.65;102151.77;110283;1276;22209;-48
2023/03/30 07:40:53;;;;;;;2.60;1.80;;;;;;;9.94;34.91;102149.69;110189;1276;22098;-48
2023/03/30 07:43:23;;;;;;;2.70;1.60;;;;;;;9.85;35.43;102148.10;110394;1270;22177;-48
2023/03/30 07:45:55;;;;;;;2.50;1.90;;;;;;;9.76;35.30;102145.48;109603;1269;1002135;-48
2023/03/30 07:48:35;;;;;;;2.00;1.60;;;;;;;9.67;35.42;102143.53;110370;1276;22342;-48
2023/03/30 07:51:08;;;;;;;2.10;1.80;;;;;;;9.61;35.81;102143.15;109449;1269;1003101;-48
2023/03/30 07:53:43;;;;;;;2.20;1.50;;;;;;;9.57;35.69;102142.79;109617;1269;1002610;-48
2023/03/30 07:56:18;;;;;;;3.20;1.50;;;;;;;9.53;36.09;102140.69;110403;1269;22415;-48
2023/03/30 07:58:50;;;;;;;;;;;;;;;9.48;35.88;102133.23;110164;1276;22436;-48
2023/03/30 08:01:19;;;;;;;1.50;1.40;;;;;;;9.44;35.85;102133.39;109341;1274;1003005;-48
2023/03/30 08:03:51;;;;;;;3.40;1.30;;;;;;;9.35;35.42;102135.06;110466;1268;22335;-48
2023/03/30 08:06:19;;;;;;;1.50;1.30;;;;;;;9.29;35.23;102135.90;110337;1270;22558;-47
2023/03/30 08:08:48;;;;;;;1.90;1.20;;;;;;;9.25;35.30;102135.17;110347;1271;22128;-47
2023/03/30 08:11:17;;;;;;;2.80;1.40;;;;;;;9.21;35.32;102134.64;109536;1270;1002414;-48
2023/03/30 08:13:46;;;;;;;1.50;1.30;;;;;;;9.19;35.53;102140.52;109675;1276;1003024;-48
2023/03/30 08:16:15;;;;;;;2.70;1.10;;;;;;;9.21;35.57;102138.09;110160;1276;22198;-48
2023/03/30 08:18:46;;;;;;;3.30;1.60;;;;;;;9.24;35.81;102139.86;110442;1268;22364;-48
2023/03/30 08:21:15;;;;;;;3.00;1.40;;;;;;;9.27;36.12;102143.86;109685;1268;1003821;-48
2023/03/30 08:23:43;;;;;;;3.50;1.60;;;;;;;9.30;36.45;102141.80;110142;1272;22907;-48
2023/03/30 08:26:15;;;;;;;;;;;;;;;9.38;36.54;102141.66;110412;1276;22439;-48
2023/03/30 08:28:43;;;;;;;1.50;1.20;;;;;;;9.46;35.86;102143.27;109673;1276;1002522;-48
2023/03/30 08:31:12;;;;;;;2.10;1.20;;;;;;;9.51;35.94;102143.28;110438;1268;22113;-48
2023/03/30 08:33:41;;;;;;;2.40;1.30;;;;;;;9.54;35.67;102144.51;110347;1276;22116;-47
2023/03/30 08:36:11;;;;;;;1.70;1.30;;;;;;;9.55;35.85;102146.42;110422;1276;22384;-48
2023/03/30 08:38:45;;;;;;;2.70;1.60;;;;;;;9.58;35.66;102151.62;110432;1276;23184;-48
2023/03/30 08:41:23;;;;;;;2.70;1.90;;;;;;;9.56;35.27;102148.85;110446;1268;22198;-47
2023/03/30 08:43:56;;;;;;;2.20;1.40;;;;;;;9.57;35.71;102147.98;109415;1272;1002749;-48
2023/03/30 08:46:24;;;;;;;3.70;1.60;;;;;;;9.61;35.08;102151.98;110109;1276;22226;-48
2023/03/30 08:48:53;;;;;;;2.10;1.50;;;;;;;9.61;34.70;102148.01;109472;1271;1002409;-48
2023/03/30 08:51:24;;;;;;;2.60;1.70;;;;;;;9.62;34.48;102148.35;109677;1268;1002673;-48
2023/03/30 08:54:00;;;;;;;2.60;1.50;;;;;;;9.62;34.41;102143.50;109670;1276;1002656;-48
2023/03/30 08:56:33;;;;;;;1.90;1.70;;;;;;;9.64;34.73;102139.88;110340;1276;22228;-48
2023/03/30 08:59:02;;;;;;;2.20;1.70;;;;;;;9.67;35.11;102141.11;110339;1277;23134;-48
2023/03/30 09:01:39;;;;;;;3.00;1.70;;;;;;;9.70;34.66;102138.18;110468;1268;22125;-48
2023/03/30 09:04:29;;;;;;;2.50;1.70;;;;;;;9.75;34.59;102136.80;110346;1270;22387;-48
2023/03/30 09:07:01;;;;;;;1.90;1.70;;;;;;;9.81;34.56;102134.23;110470;1276;22879;-48
2023/03/30 09:09:31;;;;;;;5.40;2.20;;;;;;;9.83;34.41;102130.41;110460;1268;22341;-48
2023/03/30 09:12:12;;;;;;;5.00;2.40;;;;;;;9.86;34.34;102127.83;110451;1268;22358;-48
2023/03/30 09:14:43;;;;;;;4.80;2.10;;;;;;;9.91;33.86;102124.02;109560;1269;1002237;-47
2023/03/30 09:17:27;;;;;;;2.40;2.20;;;;;;;9.95;33.72;102120.73;110396;1268;22247;-48
2023/03/30 09:20:22;;;;;;;3.20;2.10;;;;;;;9.98;33.68;102109.84;110421;1276;22350;-47
2023/03/30 09:22:52;;;;;;;4.10;2.00;;;;;;;10.03;33.52;102104.64;109578;1271;1002373;-47
2023/03/30 09:25:25;;;;;;;3.20;2.10;;;;;;;10.10;33.57;102098.77;110445;1276;22333;-47
2023/03/30 09:28:16;;;;;;;2.30;2.00;;;;;;;10.18;33.69;102098.97;110367;1273;22159;-48
2023/03/30 09:31:07;;;;;;;4.10;2.20;;;;;;;10.24;33.40;102094.13;110377;1276;22316;-48
2023/03/30 09:33:44;;;;;;;4.20;2.00;;;;;;;10.29;33.22;102086.67;109415;1275;1006929;-48
2023/03/30 09:36:14;;;;;;;5.90;2.80;;;;;;;10.30;32.78;102084.59;110391;1268;23151;-48
2023/03/30 09:38:49;;;;;;;3.70;2.30;;;;;;;10.25;32.70;102079.73;109741;1268;1002868;-48
2023/03/30 09:41:42;;;;;;;3.70;2.30;;;;;;;10.20;33.24;102076.78;110392;1275;22895;-48
2023/03/30 09:44:38;;;;;;;3.30;2.20;;;;;;;10.22;32.82;102070.70;109689;1272;1002088;-48
2023/03/30 09:47:35;;;;;;;2.90;1.80;;;;;;;10.25;32.31;102072.11;109106;1280;1002906;-48
2023/03/30 09:50:09;;;;;;;3.30;2.10;;;;;;;10.27;32.03;102066.38;109587;1283;22232;-48
2023/03/30 09:52:39;;;;;;;3.50;2.10;;;;;;;10.29;32.83;102061.88;109321;1285;22162;-48
2023/03/30 09:55:20;;;;;;;3.80;2.40;;;;;;;10.34;32.87;102059.96;109563;1283;22325;-48
2023/03/30 09:57:52;;;;;;;3.90;1.90;;;;;;;10.42;32.54;102056.66;108832;1283;1002505;-48
2023/03/30 10:00:26;;;;;;;2.80;2.00;;;;;;;10.49;32.39;102056.48;108858;1282;1002216;-48
2023/03/30 10:03:21;;;;;;;2.80;2.00;;;;;;;10.55;32.40;102050.41;109500;1285;22168;-48
2023/03/30 10:06:03;;;;;;;3.70;2.30;;;;;;;10.59;32.65;102045.72;108850;1283;1003342;-47
2023/03/30 10:08:35;;;;;;;3.20;2.30;;;;;;;10.66;32.49;102042.42;108830;1289;1002697;-48
2023/03/30 10:11:05;;;;;;;2.80;2.20;;;;;;;10.74;32.60;102040.48;109489;1289;22150;-48
2023/03/30 10:13:40;;;;;;;2.30;2.00;;;;;;;10.82;32.59;102035.60;109600;1282;22212;-48
2023/03/30 10:16:18;;;;;;;2.80;2.00;;;;;;;10.87;32.26;102036.11;109385;1286;22286;-48
2023/03/30 10:18:46;;;;;;;4.70;2.20;;;;;;;10.91;32.28;102035.59;108654;1285;1003417;-48
2023/03/30 10:21:17;;;;;;;3.70;2.40;;;;;;;10.96;32.38;102033.66;108740;1283;1002575;-48
2023/03/30 10:23:57;;;;;;;;;;;;;;;11.03;31.98;102024.62;109728;1281;22424;-48
2023/03/30 10:26:27;;;;;;;3.80;2.30;;;;;;;11.08;31.81;102019.91;109322;1274;1002830;-48
2023/03/30 10:28:59;;;;;;;2.60;1.60;;;;;;;11.09;31.77;102019.38;110460;1268;22184;-48
2023/03/30 10:31:35;;;;;;;4.30;2.30;;;;;;;11.08;31.72;102009.14;109671;1276;1002433;-48
2023/03/30 10:34:06;;;;;;;3.10;2.10;;;;;;;11.07;31.68;102004.96;110416;1269;22404;-48
2023/03/30 10:36:37;;;;;;;3.20;2.20;;;;;;;11.06;31.12;101999.26;110116;1276;22209;-48
2023/03/30 10:39:16;;;;;;;3.50;2.40;;;;;;;11.05;31.41;101996.81;110352;1277;22167;-48
2023/03/30 10:41:45;;;;;;;3.20;2.30;;;;;;;11.06;31.61;102001.17;110392;1269;22133;-48
2023/03/30 10:44:25;;;;;;;2.50;1.80;;;;;;;11.08;31.08;102002.02;110373;1276;22290;-48
2023/03/30 10:47:08;;;;;;;2.50;1.60;;;;;;;11.11;31.60;102006.52;110396;1273;22129;-48
2023/03/30 10:50:15;;;;;;;3.30;1.90;;;;;;;11.17;31.64;101994.52;109546;1270;1003191;-48
2023/03/30 10:52:50;;;;;;;5.70;2.00;;;;;;;11.24;31.32;101989.10;109983;1276;22404;-48
2023/03/30 10:55:47;;;;;;;3.10;2.20;;;;;;;11.28;31.02;101989.59;110048;1273;22184;-48
2023/03/30 10:58:22;;;;;;;1.90;1.50;;;;;;;11.32;31.34;101989.39;110049;1273;22377;-49
2023/03/30 11:01:07;;;;;;;1.70;1.50;;;;;;;11.33;30.69;101986.42;109236;1281;1002655;-48
2023/03/30 11:03:37;;;;;;;2.40;1.90;;;;;;;11.32;30.43;101986.78;109965;1273;23044;-48
2023/03/30 11:06:10;;;;;;;1.70;1.60;;;;;;;11.32;30.42;101987.14;109991;1281;22425;-48
2023/03/30 11:08:40;;;;;;;1.80;1.50;;;;;;;11.35;30.89;101987.30;109976;1280;22209;-48
2023/03/30 11:11:12;;;;;;;1.70;1.50;;;;;;;11.42;30.42;101978.92;109963;1274;22313;-48
2023/03/30 11:13:41;;;;;;;;;;;;;;;11.46;30.48;101976.81;109810;1281;22474;-46
2023/03/30 11:16:19;;;;;;;1.80;1.60;;;;;;;11.48;29.71;101973.85;109832;1278;22179;-48
2023/03/30 11:18:57;;;;;;;3.40;1.70;;;;;;;11.44;29.92;101969.88;109895;1283;22390;-48
2023/03/30 11:21:27;;;;;;;2.30;1.50;;;;;;;11.41;29.78;101970.77;109803;1280;22442;-48
2023/03/30 11:23:56;;;;;;;2.00;1.60;;;;;;;11.38;29.48;101966.09;109866;1276;22197;-48
2023/03/30 11:26:37;;;;;;;2.30;1.50;;;;;;;11.37;30.32;101960.52;109115;1284;1002371;-48
2023/03/30 11:30:00;;;;;;;2.90;1.40;;;;;;;11.41;30.46;101947.98;109870;1280;22249;-48
2023/03/30 11:32:43;;;;;;;1.60;1.50;;;;;;;11.48;30.09;101934.93;109027;1283;1002417;-48
2023/03/30 11:35:52;;;;;;;2.90;1.70;;;;;;;11.53;30.04;101940.98;109751;1280;22931;-48
2023/03/30 11:38:38;;;;;;;1.90;1.50;;;;;;;11.59;30.70;101936.23;109794;1285;22179;-48
2023/03/30 11:41:13;;;;;;;2.10;1.60;;;;;;;11.62;30.55;101938.30;109690;1285;22345;-48
2023/03/30 11:43:44;;;;;;;2.70;2.20;;;;;;;11.66;30.53;101940.55;109690;1283;22311;-48
2023/03/30 11:46:20;;;;;;;2.80;1.70;;;;;;;11.68;30.02;101939.34;109865;1282;22165;-48
2023/03/30 11:49:14;;;;;;;3.50;2.20;;;;;;;11.70;30.65;101936.89;109220;1276;1002416;-48
2023/03/30 11:52:16;;;;;;;2.10;1.90;;;;;;;11.75;31.11;101933.53;109966;1279;22936;-48
2023/03/30 11:55:18;;;;;;;1.60;1.50;;;;;;;11.84;30.73;101941.64;109972;1282;22137;-48
2023/03/30 11:58:24;;;;;;;2.20;1.60;;;;;;;11.95;30.41;101935.80;109712;1286;22939;-48
2023/03/30 12:01:13;;;;;;;3.60;1.80;;;;;;;12.09;31.50;101940.20;109665;1286;23223;-48
2023/03/30 12:03:47;;;;;;;2.30;2.00;;;;;;;12.22;32.82;101943.73;109705;1286;22960;-48
2023/03/30 12:06:22;;;;;;;2.30;2.00;;;;;;;12.32;33.16;101944.34;109754;1280;22174;-48
2023/03/30 12:09:05;;;;;;;3.30;1.90;;;;;;;12.39;33.44;101942.52;109888;1277;22319;-48